createdAt,value
2019-04-29T00:00:12.778Z,42.01
2019-04-29T00:02:43.465Z,41.62
2019-04-29T00:05:14.201Z,42.18
2019-04-29T00:07:44.650Z,42.92
2019-04-29T00:10:18.284Z,43.40
2019-04-29T00:12:48.807Z,42.83
2019-04-29T00:15:36.587Z,43.93
2019-04-29T00:18:11.513Z,44.03
2019-04-29T00:20:43.544Z,44.48
2019-04-29T00:23:14.034Z,45.37
2019-04-29T00:25:44.669Z,45.69
2019-04-29T00:28:15.559Z,46.10
2019-04-29T00:30:46.021Z,47.21
2019-04-29T00:33:16.513Z,47.95
2019-04-29T00:35:46.963Z,46.78
2019-04-29T00:38:30.816Z,47.68
2019-04-29T00:41:19.072Z,46.64
2019-04-29T00:43:51.126Z,46.75
2019-04-29T00:46:21.669Z,46.93
2019-04-29T00:48:52.971Z,46.15
2019-04-29T00:51:23.432Z,45.61
2019-04-29T00:53:55.585Z,45.92
2019-04-29T00:56:26.141Z,46.78
2019-04-29T00:58:56.638Z,46.92
2019-04-29T01:01:27.179Z,46.24
2019-04-29T01:03:57.709Z,46.71
2019-04-29T01:06:28.156Z,44.96
2019-04-29T01:08:59.654Z,45.24
2019-04-29T01:11:30.213Z,45.73
2019-04-29T01:14:00.690Z,46.64
2019-04-29T01:16:31.164Z,45.54
2019-04-29T01:19:03.893Z,46.96
2019-04-29T01:21:33.800Z,47.62
2019-04-29T01:24:04.498Z,46.85
2019-04-29T01:26:39.482Z,48.13
2019-04-29T01:29:11.524Z,47.15
2019-04-29T01:31:41.955Z,46.78
2019-04-29T01:34:16.685Z,45.82
2019-04-29T01:36:47.835Z,46.44
2019-04-29T01:39:18.404Z,45.49
2019-04-29T01:41:59.372Z,45.74
2019-04-29T01:44:31.424Z,46.41
2019-04-29T01:47:01.867Z,45.17
2019-04-29T01:49:32.443Z,45.23
2019-04-29T01:52:03.022Z,44.46
2019-04-29T01:54:33.576Z,45.75
2019-04-29T01:57:04.104Z,45.23
2019-04-29T01:59:34.585Z,49.30
2019-04-29T02:02:05.417Z,48.34
2019-04-29T02:04:35.893Z,47.75
2019-04-29T02:07:06.311Z,47.30
2019-04-29T02:09:38.390Z,47.08
2019-04-29T02:12:08.953Z,46.27
2019-04-29T02:14:39.524Z,45.49
2019-04-29T02:17:09.969Z,46.26
2019-04-29T02:19:40.491Z,47.08
2019-04-29T02:22:12.491Z,46.97
2019-04-29T02:24:44.567Z,46.68
2019-04-29T02:27:15.019Z,48.01
2019-04-29T02:29:45.601Z,48.98
2019-04-29T02:32:16.154Z,49.73
2019-04-29T02:34:46.753Z,50.31
2019-04-29T02:37:18.752Z,49.52
2019-04-29T02:39:53.974Z,50.59
2019-04-29T02:42:37.847Z,50.20
2019-04-29T02:45:10.103Z,50.45
2019-04-29T02:47:40.546Z,50.52
2019-04-29T02:50:11.230Z,51.07
2019-04-29T02:52:41.857Z,50.53
2019-04-29T02:55:14.334Z,51.15
2019-04-29T02:57:46.622Z,50.99
2019-04-29T03:00:22.827Z,49.83
2019-04-29T03:03:00.745Z,48.61
2019-04-29T03:05:32.878Z,48.50
2019-04-29T03:08:03.335Z,49.33
2019-04-29T03:10:33.865Z,48.73
2019-04-29T03:13:04.604Z,50.52
2019-04-29T03:15:36.597Z,51.53
2019-04-29T03:18:07.155Z,52.49
2019-04-29T03:20:39.304Z,52.78
2019-04-29T03:23:11.591Z,51.97
2019-04-29T03:25:42.248Z,52.31
2019-04-29T03:28:12.905Z,53.52
2019-04-29T03:30:43.414Z,53.52
2019-04-29T03:33:13.947Z,52.78
2019-04-29T03:35:44.718Z,53.66
2019-04-29T03:38:15.359Z,53.56
2019-04-29T03:40:45.842Z,54.87
2019-04-29T03:43:16.395Z,55.49
2019-04-29T03:45:46.889Z,56.49
2019-04-29T03:48:17.462Z,55.83
2019-04-29T03:50:47.978Z,55.83
2019-04-29T03:53:18.490Z,54.00
2019-04-29T03:55:50.603Z,52.93
2019-04-29T03:58:21.021Z,51.82
2019-04-29T04:00:53.183Z,52.30
2019-04-29T04:03:28.293Z,53.27
2019-04-29T04:06:15.386Z,53.49
2019-04-29T04:09:05.691Z,50.03
2019-04-29T04:11:28.512Z,51.28
2019-04-29T04:13:59.165Z,48.77
2019-04-29T04:16:31.333Z,48.85
2019-04-29T04:19:06.190Z,48.53
2019-04-29T04:21:36.820Z,47.85
2019-04-29T04:24:07.341Z,47.69
2019-04-29T04:26:37.945Z,47.06
2019-04-29T04:29:08.415Z,47.19
2019-04-29T04:31:39.024Z,46.24
2019-04-29T04:34:09.478Z,46.11
2019-04-29T04:36:40.054Z,46.94
2019-04-29T04:39:10.504Z,46.56
2019-04-29T04:41:40.977Z,45.57
2019-04-29T04:44:11.510Z,45.37
2019-04-29T04:46:42.031Z,44.91
2019-04-29T04:49:15.782Z,45.90
2019-04-29T04:51:44.764Z,45.40
2019-04-29T04:54:15.305Z,45.74
2019-04-29T04:56:45.973Z,45.88
2019-04-29T04:59:16.422Z,44.79
2019-04-29T05:01:47.031Z,44.74
2019-04-29T05:04:17.588Z,44.35
2019-04-29T05:06:48.177Z,44.33
2019-04-29T05:09:18.708Z,44.02
2019-04-29T05:11:49.744Z,44.09
2019-04-29T05:14:20.155Z,43.70
2019-04-29T05:16:50.744Z,42.93
2019-04-29T05:19:21.280Z,42.43
2019-04-29T05:21:51.833Z,41.55
2019-04-29T05:24:22.273Z,41.10
2019-04-29T05:26:52.762Z,40.93
2019-04-29T05:29:23.330Z,41.64
2019-04-29T05:31:53.820Z,40.89
2019-04-29T05:34:25.855Z,41.40
2019-04-29T05:37:00.699Z,41.07
2019-04-29T05:39:32.733Z,42.13
2019-04-29T05:42:07.655Z,42.75
2019-04-29T05:44:46.106Z,42.91
2019-04-29T05:47:18.176Z,42.60
2019-04-29T05:50:06.717Z,41.94
2019-04-29T05:52:39.517Z,41.64
2019-04-29T05:55:13.842Z,39.79
2019-04-29T05:57:43.456Z,40.55
2019-04-29T06:00:14.082Z,41.26
2019-04-29T06:02:44.592Z,41.63
2019-04-29T06:05:15.114Z,42.01
2019-04-29T06:07:45.776Z,43.11
2019-04-29T06:10:18.123Z,43.40
2019-04-29T06:12:48.891Z,41.93
2019-04-29T06:15:19.331Z,42.21
2019-04-29T06:17:49.824Z,42.41
2019-04-29T06:20:22.784Z,41.94
2019-04-29T06:22:52.374Z,42.66
2019-04-29T06:25:22.807Z,41.48
2019-04-29T06:27:53.303Z,42.45
2019-04-29T06:30:23.756Z,42.63
2019-04-29T06:32:54.325Z,42.39
2019-04-29T06:35:24.781Z,41.26
2019-04-29T06:37:55.262Z,41.42
2019-04-29T06:40:25.679Z,40.55
2019-04-29T06:42:56.292Z,41.05
2019-04-29T06:45:26.701Z,41.32
2019-04-29T06:47:57.161Z,41.09
2019-04-29T06:50:27.704Z,40.64
2019-04-29T06:52:58.183Z,40.76
2019-04-29T06:55:28.901Z,41.03
2019-04-29T06:57:59.491Z,40.93
2019-04-29T07:00:30.442Z,41.76
2019-04-29T07:03:00.977Z,41.73
2019-04-29T07:05:31.564Z,42.74
2019-04-29T07:08:02.275Z,41.75
2019-04-29T07:10:32.730Z,42.43
2019-04-29T07:13:03.274Z,44.43
2019-04-29T07:15:33.905Z,46.14
2019-04-29T07:18:04.612Z,46.10
2019-04-29T07:20:37.069Z,47.53
2019-04-29T07:23:07.353Z,47.16
2019-04-29T07:25:37.893Z,47.43
2019-04-29T07:28:08.390Z,49.12
2019-04-29T07:30:59.885Z,48.25
2019-04-29T07:33:11.106Z,49.16
2019-04-29T07:35:43.096Z,50.32
2019-04-29T07:38:14.074Z,51.05
2019-04-29T07:40:44.741Z,51.70
2019-04-29T07:43:15.236Z,52.01
2019-04-29T07:45:47.377Z,51.75
2019-04-29T07:48:17.901Z,50.68
2019-04-29T07:50:48.346Z,51.11
2019-04-29T07:53:20.972Z,50.10
2019-04-29T07:55:50.965Z,48.75
2019-04-29T07:58:23.032Z,47.53
2019-04-29T08:00:56.212Z,47.07
2019-04-29T08:03:25.981Z,47.04
2019-04-29T08:05:57.715Z,46.53
2019-04-29T08:08:29.991Z,46.13
2019-04-29T08:11:00.541Z,45.26
2019-04-29T08:13:32.344Z,44.40
2019-04-29T08:16:02.871Z,43.40
2019-04-29T08:18:33.367Z,44.14
2019-04-29T08:21:03.761Z,43.80
2019-04-29T08:23:41.219Z,43.86
2019-04-29T08:26:06.289Z,43.80
2019-04-29T08:28:36.746Z,43.45
2019-04-29T08:31:07.105Z,44.01
2019-04-29T08:33:37.564Z,43.20
2019-04-29T08:36:08.001Z,42.64
2019-04-29T08:38:38.481Z,43.39
2019-04-29T08:41:08.908Z,44.15
2019-04-29T08:43:46.878Z,43.91
2019-04-29T08:46:18.876Z,44.76
2019-04-29T08:48:49.478Z,45.79
2019-04-29T08:51:19.929Z,46.18
2019-04-29T08:53:50.403Z,46.48
2019-04-29T08:56:20.961Z,46.48
2019-04-29T08:58:51.667Z,46.45
2019-04-29T09:01:24.627Z,46.41
2019-04-29T09:03:58.034Z,46.33
2019-04-29T09:06:27.789Z,48.01
2019-04-29T09:08:59.712Z,48.15
2019-04-29T09:11:30.271Z,48.39
2019-04-29T09:14:00.772Z,47.70
2019-04-29T09:16:31.438Z,47.67
2019-04-29T09:19:02.888Z,48.41
2019-04-29T09:21:33.949Z,47.80
2019-04-29T09:24:04.423Z,48.84
2019-04-29T09:26:40.587Z,49.81
2019-04-29T09:29:29.541Z,50.18
2019-04-29T09:32:00.289Z,50.93
2019-04-29T09:34:30.760Z,51.11
2019-04-29T09:37:01.334Z,51.28
2019-04-29T09:39:43.051Z,52.26
2019-04-29T09:42:08.034Z,52.47
2019-04-29T09:44:57.439Z,52.80
2019-04-29T09:47:28.330Z,53.44
2019-04-29T09:49:58.975Z,55.06
2019-04-29T09:52:29.567Z,56.87
2019-04-29T09:55:04.141Z,58.67
2019-04-29T09:57:32.221Z,59.41
2019-04-29T10:00:10.330Z,61.13
2019-04-29T10:02:51.679Z,63.50
2019-04-29T10:05:26.745Z,64.75
2019-04-29T10:07:57.227Z,63.31
2019-04-29T10:10:27.990Z,70.32
2019-04-29T10:12:58.545Z,72.83
2019-04-29T10:15:46.647Z,73.09
2019-04-29T10:18:25.155Z,74.78
2019-04-29T10:20:55.936Z,75.85
2019-04-29T10:23:26.411Z,76.50
2019-04-29T10:25:56.885Z,77.90
2019-04-29T10:28:27.421Z,78.33
2019-04-29T10:30:58.011Z,76.27
2019-04-29T10:33:28.462Z,73.39
2019-04-29T10:35:59.051Z,75.55
2019-04-29T10:38:29.454Z,79.00
2019-04-29T10:41:07.354Z,77.49
2019-04-29T10:43:39.608Z,74.88
2019-04-29T10:46:11.652Z,76.39
2019-04-29T10:48:49.357Z,76.75
2019-04-29T10:51:23.274Z,77.21
2019-04-29T10:53:52.678Z,76.10
2019-04-29T10:56:23.328Z,76.79
2019-04-29T10:58:53.935Z,75.33
2019-04-29T11:01:31.683Z,76.34
2019-04-29T11:04:02.724Z,74.25
2019-04-29T11:06:35.691Z,73.55
2019-04-29T11:09:14.476Z,73.73
2019-04-29T11:11:45.728Z,71.98
2019-04-29T11:14:16.491Z,72.88
2019-04-29T11:16:47.630Z,74.12
2019-04-29T11:19:18.130Z,71.91
2019-04-29T11:21:48.612Z,72.53
2019-04-29T11:24:20.721Z,72.72
2019-04-29T11:27:11.427Z,73.64
2019-04-29T11:29:35.771Z,73.92
2019-04-29T11:32:08.059Z,74.57
2019-04-29T11:34:40.326Z,74.12
2019-04-29T11:37:13.725Z,74.08
2019-04-29T11:39:46.243Z,74.26
2019-04-29T11:42:16.423Z,74.59
2019-04-29T11:44:47.015Z,75.55
2019-04-29T11:47:21.039Z,76.30
2019-04-29T11:49:54.050Z,76.30
2019-04-29T11:52:28.066Z,75.75
2019-04-29T11:54:56.752Z,77.01
2019-04-29T11:57:41.149Z,77.78
2019-04-29T12:00:25.466Z,77.54
2019-04-29T12:02:57.693Z,77.44
2019-04-29T12:05:29.851Z,77.75
2019-04-29T12:08:03.849Z,77.93
2019-04-29T12:10:32.767Z,77.18
2019-04-29T12:13:05.109Z,77.60
2019-04-29T12:15:37.389Z,77.36
2019-04-29T12:18:12.651Z,76.84
2019-04-29T12:20:44.698Z,76.42
2019-04-29T12:23:15.961Z,75.77
2019-04-29T12:25:47.448Z,76.14
2019-04-29T12:28:19.193Z,76.27
2019-04-29T12:30:51.735Z,76.43
2019-04-29T12:33:32.415Z,76.74
2019-04-29T12:36:05.169Z,76.28
2019-04-29T12:38:48.843Z,76.65
2019-04-29T12:41:32.445Z,76.91
2019-04-29T12:44:07.722Z,76.13
2019-04-29T12:46:39.851Z,76.48
2019-04-29T12:49:13.555Z,76.85
2019-04-29T12:51:42.757Z,77.29
2019-04-29T12:54:13.322Z,76.71
2019-04-29T12:56:47.720Z,75.74
2019-04-29T12:59:16.380Z,76.06
2019-04-29T13:02:06.671Z,76.40
2019-04-29T13:04:39.040Z,76.54
2019-04-29T13:07:20.050Z,75.46
2019-04-29T13:10:06.886Z,73.96
2019-04-29T13:12:39.896Z,74.12
2019-04-29T13:15:27.858Z,72.64
2019-04-29T13:18:12.761Z,73.08
2019-04-29T13:20:41.572Z,72.83
2019-04-29T13:23:17.648Z,72.40
2019-04-29T13:25:42.671Z,73.01
2019-04-29T13:28:13.350Z,71.96
2019-04-29T13:30:44.020Z,72.25
2019-04-29T13:33:16.545Z,72.20
2019-04-29T13:35:48.436Z,71.97
2019-04-29T13:38:19.256Z,72.46
2019-04-29T13:40:49.900Z,72.50
2019-04-29T13:43:20.882Z,72.98
2019-04-29T13:46:05.079Z,73.39
2019-04-29T13:48:55.303Z,73.31
2019-04-29T13:51:35.669Z,74.00
2019-04-29T13:53:59.865Z,74.62
2019-04-29T13:56:35.399Z,75.77
2019-04-29T13:59:09.605Z,76.24
2019-04-29T14:01:57.771Z,75.11
2019-04-29T14:04:24.376Z,75.47
2019-04-29T14:06:57.091Z,75.58
2019-04-29T14:09:23.419Z,76.24
2019-04-29T14:12:01.881Z,75.68
2019-04-29T14:14:28.261Z,75.61
2019-04-29T14:17:17.078Z,75.54
2019-04-29T14:19:40.778Z,76.17
2019-04-29T14:22:03.500Z,76.61
2019-04-29T14:24:34.096Z,77.22
2019-04-29T14:27:05.366Z,76.19
2019-04-29T14:29:36.069Z,76.33
2019-04-29T14:32:07.961Z,77.62
2019-04-29T14:34:40.064Z,77.76
2019-04-29T14:37:21.451Z,77.84
2019-04-29T14:39:42.815Z,78.21
2019-04-29T14:42:14.942Z,78.29
2019-04-29T14:44:47.363Z,78.01
2019-04-29T14:47:19.453Z,78.25
2019-04-29T14:49:55.133Z,78.70
2019-04-29T14:52:25.838Z,78.92
2019-04-29T14:54:56.576Z,78.68
2019-04-29T14:57:27.219Z,78.53
2019-04-29T14:59:58.249Z,78.62
2019-04-29T15:02:29.133Z,78.55
2019-04-29T15:04:59.581Z,79.48
2019-04-29T15:07:31.959Z,79.08
2019-04-29T15:10:02.998Z,79.70
2019-04-29T15:12:51.276Z,79.81
2019-04-29T15:15:29.798Z,79.78
2019-04-29T15:18:15.316Z,79.17
2019-04-29T15:20:36.359Z,79.41
2019-04-29T15:23:07.041Z,79.71
2019-04-29T15:25:37.479Z,79.77
2019-04-29T15:28:08.173Z,79.90
2019-04-29T15:30:38.779Z,80.08
2019-04-29T15:33:09.283Z,80.22
2019-04-29T15:35:39.914Z,79.66
2019-04-29T15:38:10.597Z,80.40
2019-04-29T15:40:43.015Z,79.77
2019-04-29T15:43:13.464Z,80.16
2019-04-29T15:45:44.086Z,79.62
2019-04-29T15:48:14.642Z,79.88
2019-04-29T15:50:45.278Z,80.37
2019-04-29T15:53:15.984Z,79.99
2019-04-29T15:55:49.232Z,79.47
2019-04-29T15:58:22.476Z,79.76
2019-04-29T16:00:52.420Z,80.88
2019-04-29T16:03:23.038Z,80.22
2019-04-29T16:06:19.216Z,80.68
2019-04-29T16:08:45.211Z,80.57
2019-04-29T16:11:34.661Z,80.58
2019-04-29T16:14:09.750Z,79.80
2019-04-29T16:16:39.530Z,80.20
2019-04-29T16:19:10.459Z,80.62
2019-04-29T16:21:41.723Z,79.73
2019-04-29T16:24:25.626Z,80.33
2019-04-29T16:26:45.056Z,80.92
2019-04-29T16:29:15.781Z,81.55
2019-04-29T16:31:46.258Z,81.64
2019-04-29T16:34:16.852Z,81.59
2019-04-29T16:39:19.766Z,82.46
2019-04-29T16:42:01.280Z,82.21
2019-04-29T16:44:36.078Z,82.21
2019-04-29T16:47:07.366Z,82.64
2019-04-29T16:49:38.354Z,82.75
2019-04-29T16:52:08.799Z,82.52
2019-04-29T16:54:39.285Z,82.79
2019-04-29T16:57:09.948Z,82.20
2019-04-29T16:59:40.417Z,82.72
2019-04-29T17:02:10.842Z,83.12
2019-04-29T17:04:41.654Z,83.33
2019-04-29T17:07:14.688Z,82.66
2019-04-29T17:10:03.453Z,82.42
2019-04-29T17:12:38.715Z,82.61
2019-04-29T17:15:23.812Z,83.05
2019-04-29T17:17:41.531Z,82.58
2019-04-29T17:20:12.294Z,82.51
2019-04-29T17:22:44.830Z,82.36
2019-04-29T17:25:15.736Z,82.73
2019-04-29T17:27:53.877Z,82.93
2019-04-29T17:30:26.472Z,82.67
2019-04-29T17:32:59.403Z,82.67
2019-04-29T17:35:17.751Z,81.52
2019-04-29T17:35:31.797Z,82.72
2019-04-29T17:38:02.227Z,83.04
2019-04-29T17:40:34.328Z,82.59
2019-04-29T17:43:21.433Z,82.57
2019-04-29T17:46:04.250Z,82.96
2019-04-29T17:48:42.124Z,82.96
2019-04-29T17:51:13.299Z,82.73
2019-04-29T17:53:46.096Z,83.23
2019-04-29T17:56:25.337Z,83.23
2019-04-29T17:58:58.485Z,83.22
2019-04-29T18:01:50.221Z,82.86
2019-04-29T18:04:31.096Z,83.01
2019-04-29T18:07:12.158Z,83.42
2019-04-29T18:09:47.574Z,83.26
2019-04-29T18:12:19.843Z,82.98
2019-04-29T18:14:50.298Z,83.23
2019-04-29T18:17:27.109Z,83.11
2019-04-29T18:20:02.264Z,83.05
2019-04-29T18:22:34.974Z,83.05
2019-04-29T18:25:16.311Z,82.46
2019-04-29T18:27:49.014Z,82.46
2019-04-29T18:30:35.519Z,82.89
2019-04-29T18:32:56.813Z,83.26
2019-04-29T18:35:27.527Z,83.22
2019-04-29T18:37:58.052Z,83.16
2019-04-29T18:40:30.121Z,83.11
2019-04-29T18:43:01.054Z,82.62
2019-04-29T18:45:34.492Z,82.76
2019-04-29T18:48:03.944Z,82.76
2019-04-29T18:50:38.609Z,82.49
2019-04-29T18:53:07.066Z,82.85
2019-04-29T18:55:37.509Z,82.78
2019-04-29T18:58:08.036Z,82.88
2019-04-29T19:00:38.560Z,83.21
2019-04-29T19:03:09.223Z,83.40
2019-04-29T19:05:41.343Z,83.40
2019-04-29T19:08:14.890Z,83.53
2019-04-29T19:10:45.994Z,83.55
2019-04-29T19:13:16.993Z,83.02
2019-04-29T19:15:48.650Z,83.04
2019-04-29T19:18:21.222Z,83.04
2019-04-29T19:20:52.825Z,83.03
2019-04-29T19:23:29.482Z,83.14
2019-04-29T19:25:59.248Z,83.43
2019-04-29T19:28:32.247Z,83.43
2019-04-29T19:31:03.358Z,83.13
2019-04-29T19:33:37.640Z,83.35
2019-04-29T19:36:08.979Z,83.50
2019-04-29T19:38:43.422Z,83.44
2019-04-29T19:41:11.531Z,83.80
2019-04-29T19:43:43.338Z,83.16
2019-04-29T19:46:22.533Z,83.84
2019-04-29T19:48:46.062Z,83.02
2019-04-29T19:51:18.634Z,83.37
2019-04-29T19:53:49.676Z,83.50
2019-04-29T19:56:24.317Z,83.99
2019-04-29T19:58:53.197Z,83.91
2019-04-29T20:01:28.225Z,83.88
2019-04-29T20:04:06.338Z,84.29
2019-04-29T20:06:38.357Z,83.55
2019-04-29T20:09:17.213Z,83.33
2019-04-29T20:11:41.761Z,83.10
2019-04-29T20:14:18.933Z,83.69
2019-04-29T20:16:56.069Z,83.37
2019-04-29T20:19:22.010Z,83.90
2019-04-29T20:21:53.133Z,84.07
2019-04-29T20:24:26.095Z,84.02
2019-04-29T20:26:56.268Z,83.92
2019-04-29T20:29:33.481Z,84.46
2019-04-29T20:31:59.389Z,84.02
2019-04-29T20:34:30.271Z,84.02
2019-04-29T20:37:00.928Z,83.62
2019-04-29T20:39:31.759Z,83.79
2019-04-29T20:42:06.431Z,84.01
2019-04-29T20:44:36.654Z,83.96
2019-04-29T20:47:19.487Z,84.34
2019-04-29T20:49:39.796Z,84.29
2019-04-29T20:52:26.919Z,84.90
2019-04-29T20:55:01.875Z,84.77
2019-04-29T20:57:30.065Z,84.68
2019-04-29T21:00:00.765Z,84.65
2019-04-29T21:02:35.377Z,84.64
2019-04-29T21:05:06.032Z,84.28
2019-04-29T21:07:35.800Z,84.84
2019-04-29T21:10:09.377Z,84.95
2019-04-29T21:12:59.414Z,84.51
2019-04-29T21:15:31.265Z,84.78
2019-04-29T21:18:01.868Z,84.58
2019-04-29T21:20:32.546Z,84.64
2019-04-29T21:23:03.049Z,84.88
2019-04-29T21:25:35.413Z,85.42
2019-04-29T21:28:05.794Z,85.55
2019-04-29T21:30:42.363Z,85.15
2019-04-29T21:33:17.961Z,85.33
2019-04-29T21:35:45.555Z,85.55
2019-04-29T21:38:28.334Z,85.60
2019-04-29T21:41:03.196Z,86.08
2019-04-29T21:43:35.501Z,86.35
2019-04-29T21:46:06.047Z,86.66
2019-04-29T21:48:37.405Z,86.30
2019-04-29T21:51:11.082Z,86.61
2019-04-29T21:53:40.479Z,86.94
2019-04-29T21:56:10.861Z,86.95
2019-04-29T21:58:41.404Z,87.28
2019-04-29T22:01:12.196Z,87.77
2019-04-29T22:03:42.736Z,87.54
2019-04-29T22:06:13.444Z,87.47
2019-04-29T22:08:45.307Z,87.39
2019-04-29T22:11:17.519Z,87.82
2019-04-29T22:13:47.944Z,87.89
2019-04-29T22:16:18.605Z,88.54
2019-04-29T22:18:52.062Z,88.77
2019-04-29T22:21:22.426Z,88.73
2019-04-29T22:23:55.140Z,88.78
2019-04-29T22:26:26.817Z,88.97
2019-04-29T22:29:01.728Z,88.84
2019-04-29T22:31:43.297Z,89.01
2019-04-29T22:34:17.979Z,88.97
2019-04-29T22:36:48.038Z,89.14
2019-04-29T22:39:21.733Z,88.67
2019-04-29T22:42:04.483Z,88.79
2019-04-29T22:44:36.077Z,88.43
2019-04-29T22:47:06.986Z,88.41
2019-04-29T22:49:37.547Z,88.81
2019-04-29T22:52:09.007Z,88.13
2019-04-29T22:54:39.457Z,88.09
2019-04-29T22:57:09.906Z,88.32
2019-04-29T22:59:40.325Z,88.77
2019-04-29T23:02:10.890Z,88.63
2019-04-29T23:04:41.458Z,88.83
2019-04-29T23:07:11.868Z,89.07
2019-04-29T23:09:46.371Z,89.20
2019-04-29T23:12:18.397Z,88.66
2019-04-29T23:14:46.698Z,88.56
2019-04-29T23:17:17.475Z,88.48
2019-04-29T23:19:50.601Z,88.51
2019-04-29T23:22:26.309Z,88.44
2019-04-29T23:25:01.059Z,88.74
2019-04-29T23:27:31.527Z,88.66
2019-04-29T23:30:02.039Z,89.01
2019-04-29T23:32:32.639Z,88.88
2019-04-29T23:35:08.312Z,88.92
2019-04-29T23:37:35.843Z,88.88
2019-04-29T23:40:06.799Z,89.20
2019-04-29T23:42:37.460Z,89.00
2019-04-29T23:45:08.267Z,88.81
2019-04-29T23:47:41.915Z,88.48
2019-04-29T23:50:14.017Z,88.48
2019-04-29T23:52:50.289Z,88.45
2019-04-29T23:55:15.917Z,88.14
2019-04-29T23:58:06.113Z,88.23
